Farmington, NM

8:54 AM MDT on August 30, 2014 (GMT -0600)
Butler and 23rd Street | Change Station
CLOSE
Current Station
Personal Weather Station
Location: Farmington, NM
Elevation: 5500 ft
Nearby Weather Stations

Elev 5500 ft 36.75 °N, 108.20 °W | Updated 3 seconds ago

Clear
Clear
66.0 °F
Feels Like 66.0 °F
N
5.0
Wind Variable Wind from SE
Gusts 14.0 mph

Today
High -- | Low -- °F
--% Chance of Precip.
Yesterday
High -- | Low -- °F
Precip. -- in
6:42 AM 7:43 PM
Waxing Crescent, 22% visible
Pressure 30.02 in
Visibility 10.0 miles
Clouds Clear
Dew Point 43 °F
Humidity 44%
Rainfall 0.00 in
Snow Depth Not available.
UV 1 out of 12
Pollen 8.90 out of 12
Air Quality Not available.
Flu Activity Not available.
METAR KFMN 301353Z 10007KT 10SM CLR 14/06 A3018 RMK AO2 SLP166 T01440056

More Conditions Fewer Conditions

Pressure 30.02 in
Visibility 10.0 miles
Clouds Clear
Dew Point 43 °F
Humidity 44%
Rainfall 0.00 in
Snow Depth Not available.
UV 1 out of 12
Pollen 8.90 out of 12
Air Quality Not available.
Flu Activity Not available.
METAR KFMN 301353Z 10007KT 10SM CLR 14/06 A3018 RMK AO2 SLP166 T01440056

More Conditions Fewer Conditions

10-Day Weather Forecast

Almanac

Astronomy

Aug. 30, 2014 Rise Set
Actual Time 6:42 AM MDT 7:43 PM MDT
Civil Twilight 6:15 AM MDT 8:10 PM MDT
Nautical Twilight 5:44 AM MDT 8:41 PM MDT
Astronomical Twilight 5:11 AM MDT 9:14 PM MDT
Moon 11:24 AM MDT 10:28 PM MDT
Length of Visible Light 13h 54m
Length of Day
13h 01m
Tomorrow will be 2m 14s shorter.
Waxing Crescent, 22% of the Moon is Illuminated
Today
Waxing Crescent
Sep 2
First Quarter
Sep 8
Full
Sep 15
Last Quarter
Sep 24
New

Today's Extremes

State Highs State Lows

Community

WunderPhotos

Upload Photos

1,748,528 photos uploaded!

WunderBlogs® & News

Nearby

Snow Depth

Station Depth Elevation
Chamita 0 in 8400 ft
Rice Park 0 in 8460 ft
Bateman 0 in 9300 ft
Hopewell 0 in 10000 ft
Quemazon 2 in 9500 ft

Earthquake Activity

City Distance Mag. Time & Date
No recent earthquake activity has been reported nearby.
Minimum magnitude displayed is 2.5.

Coastal Water Temperatures

Place Temperature
No Stations Reporting

Nearby Weather Stations